• Join FlightAware (Why Join?)
  • Login
  • US Flag 
01:28PM EDT


 

Airport Tracker/Info


-or-


 

Live Flight TrackerFlight Track Log ✈ BMJ70 ✈ 18-Sep-2013 ✈ KMSP - KGPZ

Flight Track Log - Related Links

Times and Time Zones

All times are in EDT time to prevent confusion due to time zone crossing. See the BMJ70 flight status page for this flight to view local times or setup timezone preferences in your user account.

Time Position Orientation Groundspeed Altitude Reporting Facility
EDT Latitude Longitude Course Direction KTS MPH feet Rate Location/Type
09:02AM 44.8833 -93.1667 358° North 117 135 1,400  Level Minneapolis TRACON
09:03AM 44.9000 -93.1167 65° Northeast 138 159 1,900 540 Climbing Minneapolis TRACON
09:04AM 44.9039 -93.0811 81° East 138 159 2,400 540 Climbing Minneapolis Center
09:05AM 44.9425 -93.0556 25° Northeast 163 188 3,000 600 Climbing Minneapolis Center
09:06AM 44.9847 -93.0531 North 154 177 3,700 600 Climbing Minneapolis Center
09:07AM 45.0214 -93.0650 347° North 139 160 4,300 480 Climbing Minneapolis Center
09:08AM 45.1619 -93.2552 358° North  Level Estimated
09:08AM 45.0500 -93.0964 322° Northwest 132 152 4,700  Level Minneapolis Center
09:09AM 45.0819 -93.1336 321° Northwest 149 171 4,900 120 Climbing Minneapolis Center
09:10AM 45.1206 -93.1733 324° Northwest 170 196 5,000  Climbing Minneapolis Center
09:11AM 45.1686 -93.2194 326° Northwest 174 200 5,000  Level Minneapolis Center
09:12AM 45.2106 -93.2547 329° Northwest 176 203 5,000 240 Level Minneapolis Center
09:13AM 45.2506 -93.2878 330° Northwest 167 192 5,600 420 Climbing Minneapolis Center
09:14AM 45.2881 -93.3139 334° Northwest 153 176 5,900 120 Climbing Minneapolis Center
09:15AM 45.3275 -93.3458 330° Northwest 163 188 5,900  Level Minneapolis Center
09:16AM 45.3744 -93.3692 341° North 177 204 6,000  Climbing Minneapolis Center
09:17AM 45.4358 -93.3744 357° North 184 212 6,000  Level Minneapolis Center
09:18AM 45.4856 -93.3839 352° North 181 208 6,000  Level Minneapolis Center
09:19AM 45.5369 -93.3942 352° North 185 213 6,000  Level Minneapolis Center
09:20AM 45.5878 -93.4006 355° North 184 212 6,000  Level Minneapolis Center
09:21AM 45.6394 -93.4003 360° North 186 214 6,000  Level Minneapolis Center
09:22AM 45.6914 -93.4033 358° North 188 216 6,000  Level Minneapolis Center
09:23AM 45.7428 -93.4058 358° North 186 214 6,000  Level Minneapolis Center
09:24AM 45.8053 -93.4072 359° North 187 215 6,000  Level Minneapolis Center
09:26AM 45.8575 -93.4058 North 189 217 6,000  Level Minneapolis Center
09:27AM 45.9092 -93.4097 357° North 187 215 6,000  Level Minneapolis Center
09:28AM 45.9614 -93.4128 358° North 187 215 6,000  Level Minneapolis Center
09:29AM 46.0136 -93.4164 357° North 188 216 6,000  Level Minneapolis Center
09:30AM 46.0656 -93.4219 356° North 188 216 6,000  Level Minneapolis Center
09:31AM 46.1172 -93.4292 354° North 188 216 6,000  Level Minneapolis Center
09:32AM 46.1797 -93.4331 358° North 188 216 6,000  Level Minneapolis Center
09:33AM 46.2317 -93.4408 354° North 187 215 6,100  Climbing Minneapolis Center
09:34AM 46.2853 -93.4461 356° North 189 217 6,100  Level Minneapolis Center
09:35AM 46.3369 -93.4525 355° North 189 217 6,100  Level Minneapolis Center
09:36AM 46.3897 -93.4556 358° North 189 217 6,100  Level Minneapolis Center
09:37AM 46.4428 -93.4642 354° North 191 220 6,100  Level Minneapolis Center
09:38AM 46.4958 -93.4669 358° North 191 220 6,100  Level Minneapolis Center
09:39AM 46.5483 -93.4700 358° North 190 219 6,100  Level Minneapolis Center
09:40AM 46.6125 -93.4750 357° North 191 220 6,100  Level Minneapolis Center
09:41AM 46.6653 -93.4794 357° North 191 220 6,100  Level Minneapolis Center
09:42AM 46.7183 -93.4836 357° North 191 220 6,100  Level Minneapolis Center
09:43AM 46.7706 -93.4869 357° North 190 219 6,100  Level Minneapolis Center
09:44AM 46.8239 -93.4917 357° North 191 220 6,100 -480 Level Minneapolis Center
09:45AM 46.8792 -93.4967 356° North 193 222 5,200 -900 Descending Minneapolis Center
09:46AM 46.9439 -93.4883 North 213 245 4,300 -540 Descending Minneapolis Center
09:47AM 47.0039 -93.4817 North 219 252 4,100 -180 Descending Minneapolis Center
09:48AM 47.0658 -93.4800 North 197 227 4,000 -420 Descending Minneapolis Center
09:49AM 47.1097 -93.4736 North 178 205 3,300 -900 Descending Minneapolis Center
09:50AM 47.1494 -93.4919 343° North 159 183 2,200 -540 Descending Minneapolis Center
09:51AM 47.1875 -93.5086 343° North 157 181 2,200 -60 Level Minneapolis Center
09:52AM 47.2281 -93.5267 343° North 159 183 2,100 300 Descending Minneapolis Center
09:53AM 47.2678 -93.5414 346° North 148 170 3,000 720 Climbing Minneapolis Center
09:55AM 47.3072 -93.5461 355° North 145 167 3,700 720 Climbing Minneapolis Center
09:56AM 47.3533 -93.5389 North 141 162 4,600 720 Climbing Minneapolis Center
09:57AM 47.3922 -93.5325 North 139 160 5,300 660 Climbing Minneapolis Center
09:58AM 47.4308 -93.5236 North 139 160 6,000 240 Climbing Minneapolis Center
09:59AM 47.4764 -93.5150 North 151 174 5,900  Descending Minneapolis Center
10:00AM 47.5275 -93.5089 North 169 194 6,000  Climbing Minneapolis Center
10:01AM 47.5792 -93.5017 North 179 206 6,000  Level Minneapolis Center
10:02AM 47.6303 -93.4919 North 183 211 6,000  Level Minneapolis Center
10:03AM 47.6814 -93.4903 North 183 211 6,000  Level Minneapolis Center
10:04AM 47.7419 -93.4808 North 183 211 6,000  Level Minneapolis Center
10:05AM 47.7911 -93.4586 17° North 184 212 6,000  Level Minneapolis Center
10:06AM 47.8406 -93.4381 16° North 184 212 6,000  Level Minneapolis Center
10:07AM 47.8906 -93.4186 15° North 185 213 6,000  Level Minneapolis Center
10:08AM 47.9403 -93.3997 14° North 185 213 6,000  Level Minneapolis Center
10:09AM 47.9903 -93.3806 14° North 185 213 6,000  Level Minneapolis Center
10:10AM 48.0394 -93.3556 19° North 186 214 6,000  Level Minneapolis Center
10:11AM 48.0981 -93.3247 19° North 186 214 6,000 -420 Level Minneapolis Center
10:12AM 48.1506 -93.2997 18° North 190 219 5,200 -780 Descending Minneapolis Center
10:13AM 48.2044 -93.2656 23° Northeast 199 229 4,500 -600 Descending Minneapolis Center
10:14AM 48.2586 -93.2336 21° North 205 236 4,000 -300 Descending Minneapolis Center
10:15AM 48.3114 -93.2153 13° North 202 232 4,000 -300 Level Minneapolis Center
10:16AM 48.3653 -93.2294 350° North 199 229 3,500 -300 Descending Minneapolis Center
10:17AM 48.4278 -93.2328 358° North 193 222 3,500 -60 Level Minneapolis Center
10:18AM 48.4708 -93.2589 338° Northwest 181 208 3,400 -300 Descending Minneapolis Center
10:19AM 48.4986 -93.3131 308° West 166 191 3,000 -420 Descending Minneapolis Center
10:21AM 48.5372 -93.3783 312° West  Level FlightAware Approximate
10:28AM 48.5500 -93.4000 336° Northwest  Level FlightAware Approximate
10:29AM 48.5031 -93.4040 336° Northwest  Level Estimated
10:30AM 48.5500 -93.4000 336° Northwest  Level FlightAware Approximate
10:31AM 48.5031 -93.4040 336° Northwest  Level Estimated
10:32AM 48.5500 -93.4000 336° Northwest  Level FlightAware Approximate
10:33AM 48.5031 -93.4040 336° Northwest  Level Estimated
10:34AM 48.5500 -93.4000 336° Northwest  Level FlightAware Approximate
10:35AM 48.5031 -93.4040 336° Northwest  Level Estimated
10:36AM 48.5500 -93.4000 336° Northwest  Level FlightAware Approximate
10:37AM 48.5031 -93.4040 336° Northwest  Level Estimated
10:38AM 48.5500 -93.4000 336° Northwest  Level FlightAware Approximate